Universal, Pennsylvania
Current Conditions -  °F | °C
As of 5:53 AM on Wednesday 22 Oct 2014 (Local Time) from KAGC Reporting Station
Overcast Overcast  
Wind Chill: 43°   Ceiling: 1700
Heat Index: 47°   Visibility: 10mi
Dew Point: 42°   Wind: 9mph
Humidity: 83%   Direction: 350°N
Pressure: 30.06"   Gusts: 18mph
Location:  40.4601°N, 79.8243°W
Report Text: KAGC 220953Z 35008G16KT 10SM OVC017 08/06 A3006 RMK AO2 RAB16E34 SLP188 P0000 T00830056
Loading
Personal Weather Stations






























Interactive Weather Map
Tropical Storm Tracking
New forecast layout! Learn more

10-Day Weather Forecast

Advertisements
Track Severe Weather on mobile